createdAt,value
2022-08-03T00:02:48.991Z,98900.38
2022-08-03T00:07:56.533Z,98891.09
2022-08-03T00:13:01.553Z,98897.22
2022-08-03T00:18:07.732Z,98896.53
2022-08-03T00:23:15.501Z,98896.09
2022-08-03T00:28:20.411Z,98897.16
2022-08-03T00:33:25.592Z,98892.81
2022-08-03T00:38:35.704Z,98886.34
2022-08-03T00:43:40.648Z,98879.47
2022-08-03T00:48:45.813Z,98887.44
2022-08-03T00:53:53.837Z,98886.63
2022-08-03T00:59:01.271Z,98887.63
2022-08-03T01:04:06.473Z,98883.72
2022-08-03T01:09:25.353Z,98883.94
2022-08-03T01:14:37.428Z,98886.16
2022-08-03T01:19:51.887Z,98885.75
2022-08-03T01:25:05.957Z,98891.22
2022-08-03T01:30:15.234Z,98879.31
2022-08-03T01:35:28.128Z,98880.94
2022-08-03T01:40:36.528Z,98879.91
2022-08-03T01:45:45.090Z,98880.81
2022-08-03T01:50:52.095Z,98875.41
2022-08-03T01:55:58.561Z,98878.91
2022-08-03T02:01:07.206Z,98877.19
2022-08-03T02:06:59.038Z,98885.16
2022-08-03T02:11:40.734Z,98877.31
2022-08-03T02:16:51.979Z,98870.38
2022-08-03T02:22:01.312Z,98876.28
2022-08-03T02:27:10.965Z,98862.31
2022-08-03T02:32:34.137Z,98862.47
2022-08-03T02:37:49.716Z,98859.75
2022-08-03T02:42:58.692Z,98858.56
2022-08-03T02:48:08.861Z,98857.91
2022-08-03T02:53:15.572Z,98847.84
2022-08-03T02:58:22.649Z,98854.59
2022-08-03T03:03:33.175Z,98861.38
2022-08-03T03:08:50.605Z,98863.84
2022-08-03T03:13:56.885Z,98853.88
2022-08-03T03:19:05.542Z,98862.28
2022-08-03T03:24:13.453Z,98859.81
2022-08-03T03:29:19.014Z,98867.66
2022-08-03T03:34:27.020Z,98859.56
2022-08-03T03:39:33.812Z,98865.78
2022-08-03T03:44:38.808Z,98864.22
2022-08-03T03:49:46.724Z,98856.56
2022-08-03T03:54:56.409Z,98851.75
2022-08-03T04:00:06.246Z,98856.44
2022-08-03T04:05:27.455Z,98856.56
2022-08-03T04:10:49.253Z,98858.38
2022-08-03T04:15:56.609Z,98858.97
2022-08-03T04:21:06.975Z,98861.69
2022-08-03T04:26:15.257Z,98862.50
2022-08-03T04:31:23.502Z,98874.88
2022-08-03T04:36:36.943Z,98878.16
2022-08-03T04:42:04.384Z,98875.31
2022-08-03T04:47:09.339Z,98872.25
2022-08-03T04:52:17.544Z,98881.91
2022-08-03T04:57:23.933Z,98880.56
2022-08-03T05:02:28.890Z,98885.78
2022-08-03T05:07:36.826Z,98882.69
2022-08-03T05:12:41.932Z,98877.66
2022-08-03T05:17:50.037Z,98882.69
2022-08-03T05:22:57.569Z,98876.78
2022-08-03T05:28:02.566Z,98878.09
2022-08-03T05:33:09.289Z,98878.31
2022-08-03T05:38:23.857Z,98875.59
2022-08-03T05:43:34.790Z,98864.28
2022-08-03T05:48:41.523Z,98865.81
2022-08-03T05:53:50.020Z,98871.50
2022-08-03T05:58:55.925Z,98862.75
2022-08-03T06:04:02.496Z,98869.00
2022-08-03T06:09:12.209Z,98857.78
2022-08-03T06:14:17.601Z,98867.31
2022-08-03T06:19:24.691Z,98861.03
2022-08-03T06:24:33.170Z,98859.88
2022-08-03T06:29:39.697Z,98854.91
2022-08-03T06:34:44.913Z,98864.69
2022-08-03T06:39:55.555Z,98861.53
2022-08-03T06:45:00.709Z,98857.22
2022-08-03T06:50:16.206Z,98877.16
2022-08-03T06:55:26.401Z,98880.06
2022-08-03T07:00:44.569Z,98876.03
2022-08-03T07:05:51.443Z,98890.22
2022-08-03T07:10:59.684Z,98878.31
2022-08-03T07:16:08.917Z,98880.69
2022-08-03T07:21:16.824Z,98872.88
2022-08-03T07:26:24.902Z,98883.69
2022-08-03T07:31:35.083Z,98871.41
2022-08-03T07:36:40.105Z,98881.53
2022-08-03T07:41:47.870Z,98883.53
2022-08-03T07:46:53.621Z,98882.31
2022-08-03T07:52:10.822Z,98891.59
2022-08-03T07:57:18.389Z,98890.56
2022-08-03T08:02:23.312Z,98875.22
2022-08-03T08:07:28.396Z,98881.09
2022-08-03T08:12:36.219Z,98880.97
2022-08-03T08:17:48.068Z,98873.75
2022-08-03T08:22:54.637Z,98871.66
2022-08-03T08:28:30.620Z,98861.84
2022-08-03T08:38:55.680Z,98865.88
2022-08-03T08:44:03.731Z,98872.88
2022-08-03T08:49:15.735Z,98867.84
2022-08-03T08:54:57.162Z,98862.94
2022-08-03T09:00:14.741Z,98856.97
2022-08-03T09:05:36.256Z,98860.50
2022-08-03T09:10:48.157Z,98857.06
2022-08-03T09:16:13.049Z,98855.72
2022-08-03T09:21:36.242Z,98854.22
2022-08-03T09:26:41.536Z,98850.34
2022-08-03T09:31:53.999Z,98845.50
2022-08-03T09:37:00.005Z,98844.28
2022-08-03T09:42:09.947Z,98842.81
2022-08-03T09:47:19.039Z,98839.84
2022-08-03T09:52:37.945Z,98833.50
2022-08-03T09:57:46.830Z,98832.72
2022-08-03T10:03:08.159Z,98826.56
2022-08-03T10:08:18.239Z,98822.75
2022-08-03T10:13:24.519Z,98821.25
2022-08-03T10:18:32.204Z,98816.81
2022-08-03T10:23:38.580Z,98809.66
2022-08-03T10:28:49.493Z,98807.09
2022-08-03T10:34:00.898Z,98803.88
2022-08-03T10:39:16.487Z,98808.22
2022-08-03T10:44:23.234Z,98801.53
2022-08-03T10:49:34.617Z,98804.84
2022-08-03T10:55:07.859Z,98802.09
2022-08-03T11:00:17.544Z,98797.06
2022-08-03T11:05:33.188Z,98794.38
2022-08-03T11:10:38.655Z,98791.88
2022-08-03T11:15:46.742Z,98795.84
2022-08-03T11:20:56.115Z,98783.78
2022-08-03T11:26:19.712Z,98779.81
2022-08-03T11:31:54.540Z,98768.78
2022-08-03T11:37:33.223Z,98773.38
2022-08-03T11:42:48.407Z,98764.38
2022-08-03T11:47:58.686Z,98775.94
2022-08-03T11:53:06.773Z,98761.34
2022-08-03T11:59:18.813Z,98766.69
2022-08-03T12:03:38.288Z,98761.00
2022-08-03T12:14:50.375Z,98759.38
2022-08-03T12:19:45.767Z,98740.28
2022-08-03T12:24:53.884Z,98740.91
2022-08-03T12:30:01.879Z,98745.59
2022-08-03T12:35:07.732Z,98754.84
2022-08-03T12:40:20.585Z,98739.91
2022-08-03T12:45:28.451Z,98740.38
2022-08-03T12:50:35.686Z,98727.66
2022-08-03T12:56:05.123Z,98722.84
2022-08-03T13:01:13.672Z,98719.59
2022-08-03T13:06:20.580Z,98724.69
2022-08-03T13:11:55.770Z,98720.44
2022-08-03T13:16:55.420Z,98721.81
2022-08-03T13:22:04.720Z,98721.69
2022-08-03T13:28:03.317Z,98717.84
2022-08-03T13:32:37.970Z,98713.53
2022-08-03T13:37:42.959Z,98711.25
2022-08-03T13:42:56.421Z,98707.09
2022-08-03T13:48:01.451Z,98705.56
2022-08-03T13:53:06.476Z,98696.81
2022-08-03T13:58:14.224Z,98685.78
2022-08-03T14:03:20.471Z,98694.69
2022-08-03T14:08:25.347Z,98686.22
2022-08-03T14:13:32.892Z,98687.38
2022-08-03T14:18:37.848Z,98685.34
2022-08-03T14:23:46.494Z,98681.38
2022-08-03T14:28:54.483Z,98683.03
2022-08-03T14:34:02.150Z,98678.31
2022-08-03T14:39:07.528Z,98672.44
2022-08-03T14:44:15.164Z,98668.00
2022-08-03T14:50:38.284Z,98668.13
2022-08-03T14:54:44.956Z,98658.78
2022-08-03T14:59:55.810Z,98655.19
2022-08-03T15:05:02.346Z,98649.25
2022-08-03T15:10:08.165Z,98655.25
2022-08-03T15:15:15.947Z,98643.59
2022-08-03T15:20:36.446Z,98649.09
2022-08-03T15:26:32.048Z,98640.38
2022-08-03T15:31:18.984Z,98639.47
2022-08-03T15:36:24.544Z,98640.97
2022-08-03T15:41:29.586Z,98625.03
2022-08-03T15:46:37.027Z,98634.53
2022-08-03T15:51:42.009Z,98626.91
2022-08-03T15:56:46.897Z,98624.53
2022-08-03T16:01:56.784Z,98626.88
2022-08-03T16:07:01.965Z,98625.97
2022-08-03T16:12:15.665Z,98616.91
2022-08-03T16:17:24.700Z,98614.91
2022-08-03T16:22:30.127Z,98607.44
2022-08-03T16:28:07.201Z,98600.97
2022-08-03T16:33:17.312Z,98606.31
2022-08-03T16:38:23.541Z,98605.41
2022-08-03T16:43:28.836Z,98605.38
2022-08-03T16:48:36.947Z,98605.22
2022-08-03T16:54:05.377Z,98612.59
2022-08-03T16:59:07.486Z,98619.94
2022-08-03T17:04:15.569Z,98619.63
2022-08-03T17:09:21.828Z,98621.75
2022-08-03T17:14:28.269Z,98620.03
2022-08-03T17:19:42.386Z,98624.06
2022-08-03T17:24:54.746Z,98631.00
2022-08-03T17:30:03.950Z,98634.09
2022-08-03T17:35:14.794Z,98630.47
2022-08-03T17:40:20.245Z,98635.22
2022-08-03T17:45:52.165Z,98635.31
2022-08-03T17:51:02.487Z,98644.19
2022-08-03T17:56:44.970Z,98640.75
2022-08-03T18:02:09.522Z,98632.66
2022-08-03T18:07:40.911Z,98643.72
2022-08-03T18:12:51.805Z,98643.94
2022-08-03T18:18:02.606Z,98657.16
2022-08-03T18:23:36.212Z,98650.56
2022-08-03T18:28:40.912Z,98658.63
2022-08-03T18:34:19.922Z,98659.19
2022-08-03T18:39:17.360Z,98662.06
2022-08-03T18:44:46.563Z,98666.94
2022-08-03T18:50:00.183Z,98674.13
2022-08-03T18:55:20.228Z,98683.44
2022-08-03T19:00:42.319Z,98688.09
2022-08-03T19:06:02.616Z,98689.50
2022-08-03T19:11:28.084Z,98696.28
2022-08-03T19:16:38.733Z,98695.38
2022-08-03T19:21:44.835Z,98693.09
2022-08-03T19:26:55.972Z,98692.72
2022-08-03T19:32:04.103Z,98693.50
2022-08-03T19:37:15.422Z,98697.69
2022-08-03T19:42:32.001Z,98696.66
2022-08-03T19:47:42.815Z,98698.78
2022-08-03T19:52:50.557Z,98696.25
2022-08-03T19:58:01.165Z,98694.97
2022-08-03T20:03:22.121Z,98689.50
2022-08-03T20:08:29.948Z,98693.72
2022-08-03T20:13:39.165Z,98692.44
2022-08-03T20:18:44.275Z,98699.03
2022-08-03T20:24:02.847Z,98697.53
2022-08-03T20:29:26.003Z,98692.47
2022-08-03T20:34:51.014Z,98696.69
2022-08-03T20:39:58.361Z,98695.22
2022-08-03T20:45:15.162Z,98696.78
2022-08-03T20:50:32.559Z,98700.03
2022-08-03T20:55:47.877Z,98693.59
2022-08-03T21:01:06.322Z,98697.00
2022-08-03T21:06:14.969Z,98697.50
2022-08-03T21:11:25.050Z,98703.09
2022-08-03T21:16:36.919Z,98693.16
2022-08-03T21:21:42.907Z,98705.19
2022-08-03T21:26:51.401Z,98708.75
2022-08-03T21:32:02.128Z,98702.31
2022-08-03T21:37:07.324Z,98707.34
2022-08-03T21:42:12.234Z,98708.56
2022-08-03T21:47:21.411Z,98698.03
2022-08-03T21:52:27.229Z,98706.22
2022-08-03T21:57:34.092Z,98712.84
2022-08-03T22:02:53.026Z,98707.44
2022-08-03T22:08:00.705Z,98702.00
2022-08-03T22:13:05.649Z,98704.72
2022-08-03T22:18:13.846Z,98699.66
2022-08-03T22:23:21.392Z,98696.56
2022-08-03T22:28:31.809Z,98705.88
2022-08-03T22:33:40.820Z,98707.03
2022-08-03T22:38:46.395Z,98704.31
2022-08-03T22:43:52.311Z,98706.28
2022-08-03T22:49:00.725Z,98700.06
2022-08-03T22:54:05.680Z,98710.84
2022-08-03T22:59:39.089Z,98703.50
2022-08-03T23:04:42.178Z,98708.47
2022-08-03T23:09:50.072Z,98706.94
2022-08-03T23:14:58.231Z,98708.06
2022-08-03T23:20:09.074Z,98709.69
2022-08-03T23:25:14.642Z,98711.66
2022-08-03T23:30:19.858Z,98705.75
2022-08-03T23:36:28.568Z,98703.00
2022-08-03T23:41:06.933Z,98710.72
2022-08-03T23:46:13.477Z,98708.78
2022-08-03T23:51:36.019Z,98702.97
2022-08-03T23:56:52.228Z,98711.47
